Time;durP1;ratioP1;P1;durP2;ratioP2;P2;SDS_P1;SDS_P2;PMS_P1;PMS_P2;Temp;Humidity;BMP_temperature;BMP_pressure;BME280_temperature;BME280_humidity;BME280_pressure;Samples;Min_cycle;Max_cycle;Signal;HPM_P1;HPM_P2
2021/03/01 00:02:22;;;;;;;13.85;6.97;;;;;;;2.99;54.77;100294.56;5061045;28;20055;-51
2021/03/01 00:04:47;;;;;;;15.13;7.63;;;;;;;3.04;54.28;100314.66;5051632;28;20041;-50
2021/03/01 00:07:13;;;;;;;16.08;8.20;;;;;;;2.99;54.45;100321.00;5060653;28;20115;-51
2021/03/01 00:09:38;;;;;;;14.23;7.05;;;;;;;2.88;54.73;100317.91;5070473;28;20035;-49
2021/03/01 00:12:04;;;;;;;13.18;7.38;;;;;;;2.97;54.84;100316.69;5064328;28;20541;-54
2021/03/01 00:14:29;;;;;;;13.93;7.13;;;;;;;2.95;54.40;100321.19;5056051;28;20033;-50
2021/03/01 00:16:55;;;;;;;12.80;7.53;;;;;;;2.94;54.64;100308.88;5061081;28;20131;-50
2021/03/01 00:19:20;;;;;;;13.90;7.47;;;;;;;2.96;54.38;100315.84;5051539;28;20029;-50
2021/03/01 00:21:46;;;;;;;12.68;7.05;;;;;;;2.92;54.47;100301.03;5058776;28;20075;-48
2021/03/01 00:24:12;;;;;;;15.63;7.43;;;;;;;2.90;54.44;100313.47;5055785;28;20122;-52
2021/03/01 00:26:37;;;;;;;15.88;6.60;;;;;;;2.99;54.52;100326.28;5053660;28;20037;-45
2021/03/01 00:29:03;;;;;;;12.27;6.90;;;;;;;3.05;54.26;100340.19;5059970;28;20040;-51
2021/03/01 00:31:28;;;;;;;12.68;7.50;;;;;;;3.05;54.18;100334.91;5058265;28;20048;-50
2021/03/01 00:33:54;;;;;;;13.05;7.32;;;;;;;2.67;54.67;100277.34;5051654;28;20037;-50
2021/03/01 00:36:19;;;;;;;15.15;7.55;;;;;;;3.03;54.68;100345.56;5036041;28;20037;-50
2021/03/01 00:38:44;;;;;;;15.10;7.82;;;;;;;3.03;54.56;100357.91;5059150;28;20029;-46
2021/03/01 00:41:10;;;;;;;12.23;7.43;;;;;;;3.01;54.43;100344.72;5052507;28;20032;-50
2021/03/01 00:43:35;;;;;;;16.48;7.85;;;;;;;2.95;54.65;100337.94;5042506;28;20037;-49
2021/03/01 00:46:01;;;;;;;12.68;7.63;;;;;;;2.96;54.77;100334.34;5062005;28;20041;-50
2021/03/01 00:48:27;;;;;;;14.60;7.95;;;;;;;2.94;55.15;100338.84;5055631;28;20033;-53
2021/03/01 00:50:52;;;;;;;14.55;8.05;;;;;;;2.98;54.93;100351.03;5061108;28;20512;-49
2021/03/01 00:53:25;;;;;;;13.15;8.10;;;;;;;2.99;55.06;100350.09;5057115;28;20037;-48
2021/03/01 00:55:52;;;;;;;13.57;7.85;;;;;;;2.99;55.17;100347.47;5063380;28;20055;-49
2021/03/01 00:58:19;;;;;;;13.48;7.32;;;;;;;2.98;55.38;100345.75;5058096;28;20039;-50
2021/03/01 01:00:46;;;;;;;14.20;7.50;;;;;;;3.00;55.15;100351.81;5061687;28;20052;-45
2021/03/01 01:03:13;;;;;;;13.13;7.63;;;;;;;3.00;55.20;100346.53;5060377;28;20131;-51
2021/03/01 01:05:38;;;;;;;12.48;7.00;;;;;;;2.97;55.09;100351.06;5058604;28;20042;-47
2021/03/01 01:08:06;;;;;;;14.50;8.20;;;;;;;2.91;54.70;100370.72;5060397;28;20111;-53
2021/03/01 01:10:32;;;;;;;13.13;7.75;;;;;;;2.83;54.91;100349.00;5060574;28;20028;-52
2021/03/01 01:12:57;;;;;;;11.52;7.28;;;;;;;2.91;54.74;100373.38;5053252;28;20044;-47
2021/03/01 01:15:23;;;;;;;13.07;7.75;;;;;;;2.91;55.12;100375.13;5052888;28;20428;-52
2021/03/01 01:17:49;;;;;;;12.52;7.70;;;;;;;2.77;54.83;100346.59;5059407;28;20032;-51
2021/03/01 01:20:15;;;;;;;12.45;7.30;;;;;;;2.84;54.83;100359.53;5049923;28;20091;-50
2021/03/01 01:22:41;;;;;;;14.73;8.02;;;;;;;2.87;55.36;100374.38;5059476;28;20044;-48
2021/03/01 01:25:09;;;;;;;13.63;7.90;;;;;;;2.86;55.33;100359.44;5050112;28;20124;-48
2021/03/01 01:27:34;;;;;;;15.00;7.70;;;;;;;2.86;55.40;100370.91;5062275;28;20043;-51
2021/03/01 01:30:00;;;;;;;13.82;8.07;;;;;;;2.81;55.59;100358.78;5068368;28;20119;-47
2021/03/01 01:32:27;;;;;;;15.70;8.80;;;;;;;2.85;55.47;100378.88;5061087;28;20060;-48
2021/03/01 01:34:52;;;;;;;14.57;8.50;;;;;;;2.77;55.91;100373.03;5051581;28;20068;-52
2021/03/01 01:37:18;;;;;;;15.50;7.75;;;;;;;2.80;55.45;100388.78;5052244;28;20037;-51
2021/03/01 01:39:43;;;;;;;14.30;8.05;;;;;;;2.79;55.79;100387.94;5070059;28;20568;-47
2021/03/01 01:42:09;;;;;;;13.85;8.52;;;;;;;2.73;55.47;100383.75;5063193;28;20349;-49
2021/03/01 01:44:35;;;;;;;14.15;8.35;;;;;;;2.77;55.38;100395.03;5053043;28;20040;-47
2021/03/01 01:47:00;;;;;;;14.50;8.50;;;;;;;2.81;55.96;100390.50;5056376;28;20033;-53
2021/03/01 01:49:26;;;;;;;22.65;9.38;;;;;;;2.82;56.07;100393.09;5054641;28;20041;-52
2021/03/01 01:51:51;;;;;;;16.02;9.48;;;;;;;2.81;56.37;100380.81;5057547;28;20471;-51
2021/03/01 01:54:17;;;;;;;17.30;9.20;;;;;;;2.84;56.94;100390.38;5065205;28;20040;-52
2021/03/01 01:56:43;;;;;;;18.63;9.68;;;;;;;2.78;56.85;100382.69;5059026;28;20056;-48
2021/03/01 01:59:08;;;;;;;19.67;10.32;;;;;;;2.83;57.04;100384.25;5067042;28;20160;-46
2021/03/01 02:01:34;;;;;;;16.77;9.52;;;;;;;2.82;57.04;100389.59;5062795;28;20135;-49
2021/03/01 02:04:12;;;;;;;17.38;10.25;;;;;;;2.83;57.82;100389.53;5069947;28;20476;-50
2021/03/01 02:07:15;;;;;;;20.23;10.25;;;;;;;2.86;58.03;100383.25;5067547;28;20048;-49
2021/03/01 02:10:12;;;;;;;16.80;9.98;;;;;;;2.83;57.96;100378.09;5053996;28;20029;-51
2021/03/01 02:13:02;;;;;;;21.55;10.50;;;;;;;2.33;57.78;100313.91;5061048;28;20039;-50
2021/03/01 02:15:39;;;;;;;18.77;10.80;;;;;;;2.74;58.24;100389.88;5059016;28;20043;-51
2021/03/01 02:18:05;;;;;;;24.60;11.35;;;;;;;2.32;58.10;100319.28;5064771;28;20086;-51
2021/03/01 02:20:30;;;;;;;21.25;11.52;;;;;;;2.31;58.21;100326.31;5056080;28;20443;-46
2021/03/01 02:22:56;;;;;;;25.70;12.75;;;;;;;2.69;58.45;100392.72;5054831;28;20149;-47
2021/03/01 02:25:24;;;;;;;20.27;12.02;;;;;;;2.61;59.11;100389.50;5063271;28;20040;-46
2021/03/01 02:28:01;;;;;;;23.00;12.82;;;;;;;2.71;60.00;100404.09;5055757;28;20037;-47
2021/03/01 02:30:33;;;;;;;21.45;12.30;;;;;;;2.61;60.13;100394.78;5062213;28;20098;-49
2021/03/01 02:33:06;;;;;;;21.83;12.52;;;;;;;2.55;59.66;100392.38;5062055;28;20071;-53
2021/03/01 02:35:34;;;;;;;22.73;12.40;;;;;;;2.61;59.74;100409.78;5053858;28;20114;-49
2021/03/01 02:38:05;;;;;;;20.95;12.57;;;;;;;2.60;59.97;100406.28;5061389;28;20040;-53
2021/03/01 02:40:31;;;;;;;26.02;12.40;;;;;;;2.57;59.85;100395.81;5052584;28;20451;-51
2021/03/01 02:42:58;;;;;;;23.25;12.85;;;;;;;2.56;60.29;100404.69;5062961;28;20135;-49
2021/03/01 02:45:25;;;;;;;23.45;12.80;;;;;;;2.35;60.38;100377.28;5055154;28;20028;-48
2021/03/01 02:47:52;;;;;;;23.67;13.30;;;;;;;2.58;60.20;100402.84;5063961;28;20438;-50
2021/03/01 02:50:19;;;;;;;21.33;12.63;;;;;;;2.56;60.50;100408.19;5068378;28;20086;-53
2021/03/01 02:52:46;;;;;;;24.73;12.63;;;;;;;2.58;60.58;100416.06;5060404;28;20051;-52
2021/03/01 02:55:13;;;;;;;23.95;12.60;;;;;;;2.55;60.44;100410.88;5057116;28;20028;-50
2021/03/01 02:57:39;;;;;;;22.35;13.02;;;;;;;2.53;60.91;100420.66;5063689;28;20041;-49
2021/03/01 03:00:09;;;;;;;20.50;12.60;;;;;;;2.53;60.75;100410.09;5053113;28;20092;-50
2021/03/01 03:02:36;;;;;;;22.67;13.80;;;;;;;2.42;61.24;100399.91;5061253;28;20455;-51
2021/03/01 03:05:02;;;;;;;26.65;15.40;;;;;;;1.99;61.06;100338.97;5052813;28;20493;-50
2021/03/01 03:07:29;;;;;;;25.83;13.73;;;;;;;2.42;61.47;100407.84;5063966;28;20032;-53
2021/03/01 03:09:55;;;;;;;21.83;13.88;;;;;;;2.39;61.77;100407.97;5052690;28;20036;-52
2021/03/01 03:12:23;;;;;;;21.23;13.75;;;;;;;2.26;61.70;100399.63;5059592;28;20411;-47
2021/03/01 03:14:50;;;;;;;21.35;14.30;;;;;;;1.56;62.03;100289.44;5057414;28;20045;-52
2021/03/01 03:17:18;;;;;;;20.85;12.43;;;;;;;2.28;61.84;100408.34;5063201;28;20036;-50
2021/03/01 03:19:44;;;;;;;18.60;12.27;;;;;;;2.30;61.96;100411.81;5052399;28;20465;-50
2021/03/01 03:22:10;;;;;;;19.90;11.95;;;;;;;2.29;62.39;100415.38;5062358;28;20119;-51
2021/03/01 03:24:36;;;;;;;18.13;11.13;;;;;;;2.28;62.36;100408.34;5053874;28;20115;-45
2021/03/01 03:27:01;;;;;;;16.85;10.90;;;;;;;2.18;62.56;100399.06;5055644;28;20115;-47
2021/03/01 03:29:29;;;;;;;19.02;10.95;;;;;;;2.27;62.64;100423.34;5051263;28;20032;-49
2021/03/01 03:31:55;;;;;;;16.42;10.18;;;;;;;2.17;62.41;100410.50;5062266;28;20040;-51
2021/03/01 03:34:20;;;;;;;14.48;9.70;;;;;;;2.20;62.72;100406.00;5053139;28;20220;-50
2021/03/01 03:36:59;;;;;;;13.82;8.80;;;;;;;2.28;63.17;100425.06;5057291;28;20124;-49
2021/03/01 03:39:25;;;;;;;15.38;8.93;;;;;;;2.27;63.01;100427.78;5056700;28;20036;-50
2021/03/01 03:41:52;;;;;;;14.20;8.38;;;;;;;2.21;63.13;100417.44;5064525;28;20036;-54
2021/03/01 03:44:17;;;;;;;13.55;8.02;;;;;;;2.23;62.83;100427.00;5054227;28;20127;-50
2021/03/01 03:46:43;;;;;;;12.10;7.78;;;;;;;2.26;62.95;100439.25;5059555;28;20127;-49
2021/03/01 03:49:10;;;;;;;12.77;7.75;;;;;;;2.18;63.14;100422.84;5055131;28;20037;-49
2021/03/01 03:51:38;;;;;;;12.07;8.48;;;;;;;2.25;63.07;100437.53;5053838;28;20036;-50
2021/03/01 03:54:16;;;;;;;15.07;7.97;;;;;;;2.27;63.76;100436.53;5052653;28;20037;-49
2021/03/01 03:56:47;;;;;;;11.40;7.65;;;;;;;2.27;63.64;100451.56;5067435;28;20045;-52
2021/03/01 03:59:14;;;;;;;13.75;8.18;;;;;;;2.27;63.29;100439.19;5059761;28;20111;-53
2021/03/01 04:01:41;;;;;;;12.60;7.70;;;;;;;2.17;63.23;100421.94;5058168;28;20051;-50
2021/03/01 04:04:09;;;;;;;12.38;7.68;;;;;;;2.27;63.69;100438.34;5055601;28;20143;-54
2021/03/01 04:06:40;;;;;;;11.80;7.70;;;;;;;2.23;64.10;100426.16;5056792;28;20222;-52
2021/03/01 04:09:10;;;;;;;10.88;7.25;;;;;;;2.26;63.55;100441.91;5066139;28;20028;-52
2021/03/01 04:11:38;;;;;;;10.75;7.40;;;;;;;2.25;63.50;100440.19;5066781;28;20039;-54
2021/03/01 04:14:04;;;;;;;12.40;7.70;;;;;;;2.17;63.69;100415.78;5060086;28;20191;-53
2021/03/01 04:16:32;;;;;;;13.02;8.32;;;;;;;2.21;63.40;100428.00;5056244;28;20157;-48
2021/03/01 04:19:03;;;;;;;10.13;7.10;;;;;;;2.24;64.43;100422.59;5054145;28;20093;-52
2021/03/01 04:21:30;;;;;;;11.60;7.78;;;;;;;2.26;63.61;100439.25;5054124;28;20404;-50
2021/03/01 04:23:58;;;;;;;13.57;8.02;;;;;;;2.26;63.97;100431.34;5059270;28;20033;-51
2021/03/01 04:26:24;;;;;;;10.15;7.13;;;;;;;2.12;63.92;100410.69;5051964;28;20176;-49
2021/03/01 04:28:50;;;;;;;10.38;7.50;;;;;;;2.28;64.11;100429.50;5059690;28;20488;-50
2021/03/01 04:31:17;;;;;;;12.38;7.43;;;;;;;2.27;64.00;100438.34;5056146;28;20475;-50
2021/03/01 04:33:44;;;;;;;10.88;6.95;;;;;;;2.31;63.94;100434.66;5058254;28;20048;-49
2021/03/01 04:36:10;;;;;;;11.10;7.50;;;;;;;2.34;64.25;100439.00;5053644;28;20039;-47
2021/03/01 04:38:37;;;;;;;11.77;7.90;;;;;;;2.37;63.72;100444.16;5067978;28;20032;-51
2021/03/01 04:41:04;;;;;;;13.77;7.53;;;;;;;2.37;63.88;100439.72;5068546;28;20037;-49
2021/03/01 04:43:32;;;;;;;11.25;7.68;;;;;;;2.37;64.09;100441.50;5059986;28;20044;-52
2021/03/01 04:45:58;;;;;;;11.32;8.27;;;;;;;2.41;63.82;100453.69;5057088;28;20086;-49
2021/03/01 04:48:25;;;;;;;14.05;7.78;;;;;;;2.43;63.89;100442.16;5059543;28;20040;-51
2021/03/01 04:50:52;;;;;;;13.63;8.50;;;;;;;2.47;64.03;100457.91;5051329;28;20044;-46
2021/03/01 04:53:19;;;;;;;12.35;7.97;;;;;;;2.49;63.65;100453.41;5061038;28;20099;-52
2021/03/01 04:55:47;;;;;;;13.38;8.57;;;;;;;2.52;63.89;100463.88;5062609;28;20037;-50
2021/03/01 04:58:18;;;;;;;12.55;8.32;;;;;;;2.56;63.77;100460.19;5058694;28;20041;-49
2021/03/01 05:00:45;;;;;;;14.23;8.15;;;;;;;2.54;63.49;100467.31;5067145;28;20084;-54
2021/03/01 05:03:11;;;;;;;12.90;8.63;;;;;;;2.57;63.69;100468.06;5057919;28;20057;-46
2021/03/01 05:05:37;;;;;;;14.23;9.30;;;;;;;2.66;63.20;100466.00;5051626;28;20138;-52
2021/03/01 05:08:05;;;;;;;15.98;9.35;;;;;;;2.69;62.80;100461.47;5058263;28;20077;-48
2021/03/01 05:10:32;;;;;;;12.63;8.55;;;;;;;2.71;63.29;100456.97;5050482;28;20040;-50
2021/03/01 05:12:58;;;;;;;15.60;9.20;;;;;;;2.77;63.19;100466.44;5061324;28;20032;-51
2021/03/01 05:15:23;;;;;;;13.77;9.15;;;;;;;2.38;62.91;100398.31;5051070;28;20044;-52
2021/03/01 05:17:49;;;;;;;16.10;9.50;;;;;;;2.71;62.73;100451.69;5058816;28;20045;-53
2021/03/01 05:20:15;;;;;;;14.27;9.18;;;;;;;2.87;62.90;100469.59;5051488;28;20538;-49
2021/03/01 05:22:40;;;;;;;14.07;9.07;;;;;;;2.93;62.82;100466.75;5052113;28;20045;-50
2021/03/01 05:25:07;;;;;;;15.45;9.75;;;;;;;2.97;62.49;100486.84;5050432;28;20068;-51
2021/03/01 05:27:34;;;;;;;14.20;8.85;;;;;;;3.03;62.22;100479.59;5057911;28;20117;-50
2021/03/01 05:30:00;;;;;;;15.75;9.10;;;;;;;3.01;61.97;100469.06;5059046;28;20040;-52
2021/03/01 05:32:26;;;;;;;15.00;9.27;;;;;;;3.11;62.21;100472.22;5060236;28;20037;-50
2021/03/01 05:34:53;;;;;;;11.82;8.45;;;;;;;3.15;62.26;100474.69;5065969;28;20051;-52
2021/03/01 05:37:18;;;;;;;14.88;8.27;;;;;;;3.18;61.64;100465.78;5063205;28;20399;-49
2021/03/01 05:39:44;;;;;;;15.65;9.52;;;;;;;3.23;61.67;100455.88;5050465;28;20036;-55
2021/03/01 05:42:13;;;;;;;15.25;10.38;;;;;;;3.30;61.77;100459.13;5054035;28;20032;-49
2021/03/01 05:44:41;;;;;;;14.32;10.05;;;;;;;3.00;61.74;100412.66;5054004;28;20036;-53
2021/03/01 05:47:15;;;;;;;12.95;8.48;;;;;;;3.50;61.71;100465.41;5056026;28;20049;-47
2021/03/01 05:49:42;;;;;;;11.75;8.18;;;;;;;3.57;60.95;100459.78;5048568;28;20425;-51
2021/03/01 05:52:20;;;;;;;12.45;7.95;;;;;;;3.63;60.78;100447.25;5057500;28;20125;-47
2021/03/01 05:54:46;;;;;;;13.32;8.15;;;;;;;3.77;60.48;100454.59;5068687;28;20032;-50
2021/03/01 05:57:12;;;;;;;13.10;8.60;;;;;;;3.88;60.30;100458.53;5061771;28;20059;-51
2021/03/01 05:59:41;;;;;;;12.15;8.13;;;;;;;4.07;59.98;100465.66;5054743;28;20080;-52
2021/03/01 06:02:07;;;;;;;15.63;7.80;;;;;;;4.37;58.36;100464.38;5060014;28;20491;-47
2021/03/01 06:04:33;;;;;;;11.10;7.38;;;;;;;4.64;57.82;100461.41;5054300;28;20122;-52
2021/03/01 06:06:59;;;;;;;12.00;8.32;;;;;;;4.93;56.70;100465.38;5054989;28;20561;-47
2021/03/01 06:09:24;;;;;;;11.20;7.60;;;;;;;5.15;56.47;100459.06;5055245;28;20063;-51
2021/03/01 06:11:54;;;;;;;12.48;7.30;;;;;;;5.39;56.00;100458.81;5052037;28;20053;-50
2021/03/01 06:14:19;;;;;;;10.88;7.45;;;;;;;5.55;55.33;100437.66;5057361;28;20033;-46
2021/03/01 06:17:14;;;;;;;13.05;7.78;;;;;;;5.93;54.73;100449.94;5057776;28;20393;-54
2021/03/01 06:19:45;;;;;;;11.52;7.32;;;;;;;6.23;53.51;100446.66;5049839;28;20200;-46
2021/03/01 06:22:12;;;;;;;11.07;7.18;;;;;;;6.56;52.98;100456.47;5054664;28;20064;-50
2021/03/01 06:24:38;;;;;;;13.52;7.57;;;;;;;6.94;52.00;100461.47;5048241;28;20045;-49
2021/03/01 06:27:07;;;;;;;10.73;6.88;;;;;;;7.32;51.01;100457.59;5052556;28;20076;-51
2021/03/01 06:29:33;;;;;;;10.25;6.22;;;;;;;7.64;49.73;100449.59;5060483;28;20037;-49
2021/03/01 06:31:59;;;;;;;10.05;6.30;;;;;;;7.90;48.90;100440.03;5061232;28;20039;-48
2021/03/01 06:34:28;;;;;;;8.80;6.35;;;;;;;8.19;48.10;100466.75;5058989;28;20041;-51
2021/03/01 06:37:01;;;;;;;11.93;6.93;;;;;;;8.26;47.78;100477.91;5054696;28;20367;-48
2021/03/01 06:39:33;;;;;;;10.25;6.43;;;;;;;8.21;47.38;100465.84;5059164;28;20401;-49
2021/03/01 06:42:22;;;;;;;8.88;6.53;;;;;;;8.23;48.03;100455.91;5059895;28;20041;-49
2021/03/01 06:45:08;;;;;;;9.52;6.22;;;;;;;8.38;47.25;100465.63;5059875;28;20029;-54
2021/03/01 06:47:56;;;;;;;8.75;5.95;;;;;;;8.67;46.02;100471.00;5057267;28;20122;-53
2021/03/01 06:50:32;;;;;;;8.55;6.03;;;;;;;11.63;41.31;100484.94;5057893;28;20048;-55
2021/03/01 06:53:15;;;;;;;7.28;4.97;;;;;;;14.91;34.70;100476.53;5058199;28;20036;-53
2021/03/01 06:55:54;;;;;;;8.60;5.15;;;;;;;15.54;33.17;100482.66;5061173;28;20032;-52
2021/03/01 06:58:24;;;;;;;7.25;5.28;;;;;;;15.03;34.54;100475.47;5059858;28;20048;-55
2021/03/01 07:01:08;;;;;;;6.68;4.82;;;;;;;15.55;31.96;100471.72;5056975;28;20045;-55
2021/03/01 07:03:35;;;;;;;8.25;4.47;;;;;;;15.77;31.80;100488.66;5059250;28;20460;-53
2021/03/01 07:06:03;;;;;;;4.95;4.07;;;;;;;15.21;31.60;100494.53;5058237;28;20056;-48
2021/03/01 07:08:33;;;;;;;6.07;4.18;;;;;;;14.41;30.84;100496.13;5063840;28;20184;-51
2021/03/01 07:11:03;;;;;;;6.80;4.40;;;;;;;13.72;32.39;100496.47;5059832;28;20496;-53
2021/03/01 07:13:31;;;;;;;7.43;3.58;;;;;;;13.01;32.74;100497.66;5062606;28;20036;-52
2021/03/01 07:15:58;;;;;;;4.95;3.55;;;;;;;12.32;33.07;100490.56;5059679;28;20032;-50
2021/03/01 07:18:25;;;;;;;4.00;3.50;;;;;;;11.58;33.92;100449.56;5060217;28;20506;-54
2021/03/01 07:20:52;;;;;;;5.82;4.47;;;;;;;11.55;33.95;100495.34;5058163;28;20105;-58
2021/03/01 07:23:18;;;;;;;4.97;4.07;;;;;;;11.29;34.03;100491.94;5040713;28;20661;-56
2021/03/01 07:25:44;;;;;;;5.38;4.13;;;;;;;10.97;34.57;100493.28;5032932;28;20548;-56
2021/03/01 07:28:14;;;;;;;6.20;4.15;;;;;;;10.68;34.68;100493.53;5047502;28;20025;-54
2021/03/01 07:30:45;;;;;;;4.55;3.72;;;;;;;10.32;34.85;100492.41;5068535;28;20035;-53
2021/03/01 07:33:14;;;;;;;7.47;6.07;;;;;;;9.87;35.35;100476.72;5071410;28;20497;-56
2021/03/01 07:35:45;;;;;;;5.68;3.55;;;;;;;9.40;35.99;100484.25;5069373;28;20028;-53
2021/03/01 07:38:11;;;;;;;5.00;3.42;;;;;;;8.90;37.22;100474.91;5067480;28;20122;-54
2021/03/01 07:40:37;;;;;;;7.60;3.70;;;;;;;8.48;37.82;100474.81;5079335;28;20059;-54
2021/03/01 07:43:07;;;;;;;6.00;3.28;;;;;;;8.07;38.43;100469.31;5047768;28;20031;-53
2021/03/01 07:45:33;;;;;;;5.25;2.63;;;;;;;7.80;38.34;100485.97;5058460;28;20089;-53
2021/03/01 07:48:10;;;;;;;2.53;2.33;;;;;;;7.53;38.57;100479.53;5069698;28;20036;-53
2021/03/01 07:50:38;;;;;;;2.90;2.42;;;;;;;7.24;38.52;100479.38;5067695;28;20033;-57
2021/03/01 07:53:04;;;;;;;3.28;2.53;;;;;;;6.98;39.35;100476.34;5051754;28;20047;-47
2021/03/01 07:55:30;;;;;;;4.53;2.30;;;;;;;6.64;39.62;100448.91;5067664;28;20045;-55
2021/03/01 07:58:06;;;;;;;3.85;2.40;;;;;;;6.60;39.12;100463.34;5063462;28;20025;-52
2021/03/01 08:00:36;;;;;;;3.33;2.35;;;;;;;6.55;39.61;100478.69;5058111;28;20079;-50
2021/03/01 08:03:37;;;;;;;3.05;2.40;;;;;;;6.59;39.72;100480.25;5063427;28;20079;-55
2021/03/01 08:06:04;;;;;;;4.75;2.67;;;;;;;6.41;39.51;100461.66;5059642;28;20029;-52
2021/03/01 08:08:45;;;;;;;3.53;2.65;;;;;;;6.45;39.96;100471.19;5060819;28;20043;-52
2021/03/01 08:11:12;;;;;;;5.10;2.65;;;;;;;6.43;39.78;100477.53;5062466;28;20121;-53
2021/03/01 08:13:38;;;;;;;3.13;2.55;;;;;;;6.46;40.00;100480.88;5058287;28;20121;-52
2021/03/01 08:16:23;;;;;;;4.30;2.70;;;;;;;6.26;39.99;100428.75;5065466;28;20056;-54
2021/03/01 08:18:53;;;;;;;4.55;2.25;;;;;;;6.53;39.36;100483.25;5060638;28;20076;-54
2021/03/01 08:21:19;;;;;;;4.75;2.25;;;;;;;6.50;39.73;100486.03;5060072;28;20044;-50
2021/03/01 08:23:47;;;;;;;2.85;2.05;;;;;;;6.46;39.87;100480.03;5071081;28;20047;-52
2021/03/01 08:26:28;;;;;;;5.68;2.25;;;;;;;6.49;39.93;100479.00;5063862;28;20036;-49
2021/03/01 08:28:56;;;;;;;3.75;2.20;;;;;;;6.39;39.75;100465.31;5055020;28;20132;-52
2021/03/01 08:31:24;;;;;;;3.67;2.40;;;;;;;6.51;39.74;100471.78;5043503;28;20059;-50
2021/03/01 08:33:50;;;;;;;6.43;2.47;;;;;;;6.41;40.35;100439.53;5070416;28;20032;-51
2021/03/01 08:36:16;;;;;;;3.72;2.17;;;;;;;6.53;40.19;100446.00;5064956;28;20037;-52
2021/03/01 08:38:53;;;;;;;4.82;2.03;;;;;;;6.53;39.92;100453.97;5067686;28;20037;-53
2021/03/01 08:41:39;;;;;;;3.22;2.17;;;;;;;6.60;40.04;100442.88;5065842;28;20466;-51
2021/03/01 08:44:19;;;;;;;4.85;2.40;;;;;;;6.56;39.90;100445.81;5067020;28;20024;-47
2021/03/01 08:46:45;;;;;;;5.00;2.70;;;;;;;6.54;39.81;100437.06;5063724;28;20416;-54
2021/03/01 08:49:22;;;;;;;3.63;1.80;;;;;;;6.53;39.88;100438.84;5058513;28;20123;-53
2021/03/01 08:51:48;;;;;;;4.00;2.22;;;;;;;6.64;39.59;100437.44;5059407;28;20035;-48
2021/03/01 08:54:27;;;;;;;4.20;2.15;;;;;;;6.79;39.61;100441.06;5067488;28;20032;-49
2021/03/01 08:57:06;;;;;;;4.82;2.28;;;;;;;6.90;39.17;100433.31;5061718;28;20048;-59
2021/03/01 08:59:33;;;;;;;5.22;2.28;;;;;;;6.82;39.06;100414.25;5069259;28;20064;-51
2021/03/01 09:01:59;;;;;;;4.47;2.33;;;;;;;6.80;39.24;100413.50;5067984;28;20048;-54
2021/03/01 09:04:24;;;;;;;2.33;1.80;;;;;;;6.52;39.49;100353.81;5063547;28;20044;-55
2021/03/01 09:06:50;;;;;;;2.83;2.10;;;;;;;7.00;39.91;100423.88;5073012;28;20028;-51
2021/03/01 09:09:15;;;;;;;6.15;2.20;;;;;;;7.15;39.30;100429.28;5072741;28;20484;-49
2021/03/01 09:11:42;;;;;;;6.05;2.05;;;;;;;7.18;39.14;100427.31;5065889;28;20058;-56
2021/03/01 09:14:07;;;;;;;4.90;1.52;;;;;;;7.16;38.89;100426.53;5079357;28;20033;-53
2021/03/01 09:16:36;;;;;;;1.83;1.50;;;;;;;7.06;38.96;100416.50;5069271;28;20039;-51
2021/03/01 09:19:08;;;;;;;2.90;1.52;;;;;;;7.06;38.83;100437.78;5073069;28;20170;-59
2021/03/01 09:21:40;;;;;;;2.10;1.58;;;;;;;6.99;38.79;100427.50;5070142;28;20518;-47
2021/03/01 09:24:14;;;;;;;1.85;1.40;;;;;;;6.94;38.78;100428.69;5081547;28;20036;-52
2021/03/01 09:26:42;;;;;;;1.90;1.38;;;;;;;6.92;39.77;100422.59;5073691;28;20101;-53
2021/03/01 09:29:22;;;;;;;2.97;1.50;;;;;;;6.93;39.94;100443.78;5072664;28;20028;-56
2021/03/01 09:31:51;;;;;;;2.35;1.40;;;;;;;6.88;39.79;100430.75;5061186;28;20055;-55
2021/03/01 09:34:18;;;;;;;3.05;1.73;;;;;;;6.80;39.94;100421.47;5082963;28;20020;-54
2021/03/01 09:36:49;;;;;;;2.70;1.48;;;;;;;6.88;39.78;100430.75;5074076;28;20094;-54
2021/03/01 09:39:25;;;;;;;3.13;1.30;;;;;;;6.86;40.32;100423.78;5072145;28;20032;-52
2021/03/01 09:41:52;;;;;;;2.85;1.25;;;;;;;6.81;40.16;100423.19;5065741;28;20111;-49
2021/03/01 09:44:35;;;;;;;2.60;1.30;;;;;;;6.83;40.73;100408.84;5070041;28;20036;-49
2021/03/01 09:47:01;;;;;;;1.30;1.20;;;;;;;6.51;40.19;100354.72;5066229;28;20037;-59
2021/03/01 09:49:34;;;;;;;1.42;1.33;;;;;;;6.79;40.71;100417.09;5077539;28;20525;-56
2021/03/01 09:52:00;;;;;;;1.92;1.23;;;;;;;6.75;41.15;100403.97;5048969;28;20063;-60
2021/03/01 09:54:35;;;;;;;2.60;1.50;;;;;;;6.80;40.81;100408.16;5064671;28;20436;-51
2021/03/01 09:57:07;;;;;;;2.45;0.80;;;;;;;6.71;40.96;100409.53;5067594;28;20044;-56
2021/03/01 09:59:39;;;;;;;2.88;1.55;;;;;;;6.67;41.78;100406.16;5073934;28;20049;-48
2021/03/01 10:02:13;;;;;;;2.80;0.95;;;;;;;6.60;41.71;100395.00;5064492;28;20463;-58
2021/03/01 10:04:39;;;;;;;2.58;1.00;;;;;;;6.68;41.55;100407.03;5082728;28;20131;-56
2021/03/01 10:07:20;;;;;;;2.92;0.98;;;;;;;6.70;42.02;100398.00;5071276;28;20064;-52
2021/03/01 10:09:47;;;;;;;1.10;0.90;;;;;;;6.57;41.93;100383.69;5080215;28;20036;-60
2021/03/01 10:12:13;;;;;;;1.77;0.85;;;;;;;6.54;42.00;100378.53;5070897;28;20037;-54
2021/03/01 10:14:39;;;;;;;1.13;0.70;;;;;;;6.26;41.65;100322.38;5079149;28;20071;-54
2021/03/01 10:17:19;;;;;;;0.95;0.90;;;;;;;6.72;42.06;100382.81;5076968;28;20480;-54
2021/03/01 10:19:45;;;;;;;0.60;0.60;;;;;;;6.72;41.97;100372.16;5076887;28;20036;-56
2021/03/01 10:22:11;;;;;;;0.90;0.80;;;;;;;6.61;42.16;100366.59;5077269;28;20033;-57
2021/03/01 10:24:48;;;;;;;1.10;0.90;;;;;;;6.47;42.06;100352.25;5083522;28;20036;-51
2021/03/01 10:27:15;;;;;;;3.03;1.00;;;;;;;6.63;42.30;100377.16;5061759;28;20080;-52
2021/03/01 10:29:47;;;;;;;0.85;0.70;;;;;;;6.68;42.13;100375.94;5081752;28;20457;-64
2021/03/01 10:32:22;;;;;;;1.17;0.88;;;;;;;6.81;42.21;100391.25;5071529;28;20119;-54
2021/03/01 10:34:48;;;;;;;1.38;0.90;;;;;;;6.83;41.80;100384.03;5080420;28;20124;-56
2021/03/01 10:37:16;;;;;;;1.00;0.70;;;;;;;6.87;41.84;100383.78;5077570;28;20122;-53
2021/03/01 10:39:44;;;;;;;1.15;0.80;;;;;;;6.79;41.75;100348.75;5081111;28;20036;-55
2021/03/01 10:42:14;;;;;;;0.95;0.60;;;;;;;6.76;41.86;100359.56;5072987;28;20033;-60
2021/03/01 10:44:45;;;;;;;1.75;0.60;;;;;;;6.95;42.33;100370.03;5064745;28;20085;-55
2021/03/01 10:47:18;;;;;;;2.25;0.50;;;;;;;6.93;41.91;100369.25;5064405;28;20071;-56
2021/03/01 10:49:45;;;;;;;0.73;0.47;;;;;;;6.94;42.56;100370.13;5065347;28;20041;-58
2021/03/01 10:52:13;;;;;;;1.48;0.50;;;;;;;6.98;42.40;100364.50;5067894;28;20460;-52
2021/03/01 10:54:39;;;;;;;1.30;0.68;;;;;;;7.06;41.78;100353.44;5066883;28;20033;-56
2021/03/01 10:57:13;;;;;;;0.90;0.73;;;;;;;7.11;42.26;100345.19;5064700;28;20040;-47
2021/03/01 10:59:44;;;;;;;1.83;0.98;;;;;;;7.13;41.98;100337.97;5058506;28;20060;-53
2021/03/01 11:02:35;;;;;;;;;;;;;;;7.46;41.47;100337.78;5069290;28;20138;-56
2021/03/01 11:05:00;;;;;;;1.67;0.70;;;;;;;7.21;41.28;100321.53;5068406;28;19960;-57
2021/03/01 11:07:27;;;;;;;1.48;0.95;;;;;;;7.30;41.48;100339.63;5066317;28;20033;-65
2021/03/01 11:09:53;;;;;;;1.85;0.93;;;;;;;7.29;41.57;100345.91;5065902;28;20123;-56
2021/03/01 11:12:18;;;;;;;1.02;0.90;;;;;;;7.26;41.63;100327.47;5071383;28;20115;-55
2021/03/01 11:14:44;;;;;;;1.50;0.80;;;;;;;7.36;41.76;100323.31;5073522;28;20040;-50
2021/03/01 11:17:11;;;;;;;1.95;1.75;;;;;;;7.35;41.63;100300.25;5065963;28;20043;-55
2021/03/01 11:19:40;;;;;;;2.45;2.17;;;;;;;7.52;41.49;100320.59;5062097;28;20037;-54
2021/03/01 11:22:05;;;;;;;1.52;1.17;;;;;;;7.26;41.33;100264.41;5064809;28;20032;-53
2021/03/01 11:24:31;;;;;;;1.77;0.95;;;;;;;7.53;41.52;100308.97;5073497;28;20454;-58
2021/03/01 11:26:56;;;;;;;1.15;0.73;;;;;;;7.50;41.54;100313.63;5068443;28;20040;-69
2021/03/01 11:29:22;;;;;;;1.23;1.00;;;;;;;7.39;41.61;100296.50;5074407;28;20036;-58
2021/03/01 11:31:49;;;;;;;2.78;1.00;;;;;;;7.46;42.04;100311.16;5063681;28;20095;-58
2021/03/01 11:34:14;;;;;;;1.55;1.10;;;;;;;7.33;41.94;100289.72;5061180;28;20123;-56
2021/03/01 11:36:40;;;;;;;2.63;0.88;;;;;;;7.26;41.89;100285.72;5063027;28;20486;-60